Skip Navigation Links
NOAA logo - Click to go to the NOAA homepage
NOAA's National Weather Service
Alaska Aviation Weather Unit
  NWS logo - Click to go to the NWS homepage
Left Navbar Graphic     09 AKDT = 17 GMT

   
NOAA is celebrating 200 years of science, service, and stewardship. Visit the NOAA 200th celebration Web site to learn more.
USA.gov is the U.S. Government's official Web portal to all Federal, state and local government Web resources and services.
Facebook
NWS on Facebook

Important Change Regarding the AAWU Web Presence

 

Over the last several months, the AAWU has been working to navigate its webpages to a nationally supported server. Security, as well as other needs, have necessitated the change.  In the process, we have made an effort to enhance the functionality of our website, as well as some of our products. As of June 20, 2017, aawu.arh.noaa.gov will be discontinued. The new AAWU web address is weather.gov/aawu. It is now live and will run in-parallel with the old site until it is discontinued. Please send any feedback or questions regarding the new webpages to nws.ar.aawu.webauthors@noaa.gov.  Thank you for your patience during this time of transition.
AAWU Home :: Display TAF Add Bookmark
METAR PASL 271116Z AUTO 14003KT 10SM BKN019 BKN031 03/01 A3002 RMK
     AO1=

METAR PASL 271136Z AUTO 14004KT 10SM FEW021 03/01 A3002 RMK AO1=

METAR PASL 271156Z AUTO 14004KT 10SM BKN019 03/01 A3002 RMK AO1 10040
     20030=

METAR PASL 271216Z AUTO 13003KT 10SM OVC019 03/01 A3002 RMK AO1=

METAR PASL 271256Z AUTO 00000KT 10SM CLR 03/01 A3002 RMK AO1=

METAR PASL 271316Z AUTO 00000KT 10SM FEW026 03/01 A3002 RMK AO1=

METAR PASL 271356Z AUTO 13004KT 10SM SCT032 03/01 A3002 RMK AO1=

METAR PASL 271416Z AUTO 00000KT 9SM BKN024 BKN031 03/01 A3002 RMK
     AO1=

METAR PASL 271436Z AUTO 00000KT 10SM OVC024 03/01 A3002 RMK AO1=

METAR PASL 271456Z AUTO 00000KT 10SM FEW009 BKN024 OVC032 03/01
 A3003 RMK AO1 52003=

METAR PASL 271516Z AUTO 00000KT 8SM BKN024 BKN032 03/01 A3003 RMK
     AO1=

METAR PASL 271536Z AUTO 14004KT 8SM BKN024 OVC029 03/01 A3003 RMK
     AO1=

METAR PASL 271556Z AUTO 00000KT 10SM BKN026 BKN031 03/01 A3003 RMK
     AO1=

METAR PASL 271616Z AUTO 00000KT 10SM BKN026 BKN034 04/02 A3003 RMK
 AO1=

METAR PASL 271636Z AUTO 11003KT 10SM BKN024 OVC032 04/01 A3003 RMK
     AO1=

METAR PASL 271656Z AUTO 14004KT 10SM SCT026 BKN034 04/02 A3003 RMK
     AO1=

METAR PASL 271716Z AUTO 13004KT 10SM FEW008 FEW028 SCT034 04/02
 A3003 RMK AO1=


NOAA's National Weather Service
Alaska Aviation Weather Unit
6930 Sand Lake Road
Anchorage, AK 99502-1845
Disclaimer
Credits
Glossary
Privacy Policy
About Us
Career Opportunities
Contact AAWU Internet Services Site last modified: April, 17th 2012